sensor_id;sensor_type;location;lat;lon;timestamp;P1;durP1;ratioP1;P2;durP2;ratioP2
37559;SDS011;23398;50.928;7.084;2022-12-18T00:01:28;12.47;;;6.87;;
37559;SDS011;23398;50.928;7.084;2022-12-18T00:03:56;13.00;;;6.80;;
37559;SDS011;23398;50.928;7.084;2022-12-18T00:06:23;12.03;;;7.20;;
37559;SDS011;23398;50.928;7.084;2022-12-18T00:08:50;10.93;;;6.63;;
37559;SDS011;23398;50.928;7.084;2022-12-18T00:11:19;12.70;;;7.37;;
37559;SDS011;23398;50.928;7.084;2022-12-18T00:13:46;14.93;;;7.57;;
37559;SDS011;23398;50.928;7.084;2022-12-18T00:16:13;12.97;;;7.07;;
37559;SDS011;23398;50.928;7.084;2022-12-18T00:18:40;13.37;;;7.23;;
37559;SDS011;23398;50.928;7.084;2022-12-18T00:21:07;14.53;;;7.37;;
37559;SDS011;23398;50.928;7.084;2022-12-18T00:23:35;13.10;;;7.10;;
37559;SDS011;23398;50.928;7.084;2022-12-18T00:26:07;14.43;;;7.37;;
37559;SDS011;23398;50.928;7.084;2022-12-18T00:28:35;14.30;;;7.03;;
37559;SDS011;23398;50.928;7.084;2022-12-18T00:31:02;13.40;;;7.00;;
37559;SDS011;23398;50.928;7.084;2022-12-18T00:33:28;16.77;;;8.27;;
37559;SDS011;23398;50.928;7.084;2022-12-18T00:35:54;16.60;;;8.17;;
37559;SDS011;23398;50.928;7.084;2022-12-18T00:38:19;16.37;;;7.83;;
37559;SDS011;23398;50.928;7.084;2022-12-18T00:40:45;15.83;;;7.97;;
37559;SDS011;23398;50.928;7.084;2022-12-18T00:43:10;16.43;;;7.53;;
37559;SDS011;23398;50.928;7.084;2022-12-18T00:45:36;13.60;;;7.27;;
37559;SDS011;23398;50.928;7.084;2022-12-18T00:48:02;13.97;;;7.33;;
37559;SDS011;23398;50.928;7.084;2022-12-18T00:50:27;15.57;;;7.47;;
37559;SDS011;23398;50.928;7.084;2022-12-18T00:52:53;11.73;;;6.27;;
37559;SDS011;23398;50.928;7.084;2022-12-18T00:55:18;13.83;;;6.43;;
37559;SDS011;23398;50.928;7.084;2022-12-18T00:57:44;11.30;;;6.20;;
37559;SDS011;23398;50.928;7.084;2022-12-18T01:00:11;12.27;;;6.73;;
37559;SDS011;23398;50.928;7.084;2022-12-18T01:02:39;10.70;;;6.07;;
37559;SDS011;23398;50.928;7.084;2022-12-18T01:05:06;9.40;;;5.90;;
37559;SDS011;23398;50.928;7.084;2022-12-18T01:07:32;11.83;;;6.47;;
37559;SDS011;23398;50.928;7.084;2022-12-18T01:09:58;10.83;;;6.20;;
37559;SDS011;23398;50.928;7.084;2022-12-18T01:12:24;10.03;;;6.07;;
37559;SDS011;23398;50.928;7.084;2022-12-18T01:14:49;12.80;;;6.83;;
37559;SDS011;23398;50.928;7.084;2022-12-18T01:17:15;10.50;;;6.03;;
37559;SDS011;23398;50.928;7.084;2022-12-18T01:19:41;10.73;;;6.13;;
37559;SDS011;23398;50.928;7.084;2022-12-18T01:22:06;9.63;;;5.60;;
37559;SDS011;23398;50.928;7.084;2022-12-18T01:24:32;9.50;;;6.17;;
37559;SDS011;23398;50.928;7.084;2022-12-18T01:26:58;10.70;;;6.10;;
37559;SDS011;23398;50.928;7.084;2022-12-18T01:29:23;11.53;;;6.57;;
37559;SDS011;23398;50.928;7.084;2022-12-18T01:31:49;10.90;;;6.40;;
37559;SDS011;23398;50.928;7.084;2022-12-18T01:34:14;13.00;;;7.10;;
37559;SDS011;23398;50.928;7.084;2022-12-18T01:36:40;10.80;;;6.37;;
37559;SDS011;23398;50.928;7.084;2022-12-18T01:39:07;12.63;;;6.77;;
37559;SDS011;23398;50.928;7.084;2022-12-18T01:41:36;13.47;;;6.37;;
37559;SDS011;23398;50.928;7.084;2022-12-18T01:52:35;8.77;;;5.93;;
37559;SDS011;23398;50.928;7.084;2022-12-18T01:55:04;10.00;;;6.10;;
37559;SDS011;23398;50.928;7.084;2022-12-18T01:57:31;14.53;;;6.07;;
37559;SDS011;23398;50.928;7.084;2022-12-18T01:59:59;10.93;;;6.00;;
37559;SDS011;23398;50.928;7.084;2022-12-18T02:02:28;11.57;;;6.10;;
37559;SDS011;23398;50.928;7.084;2022-12-18T02:04:55;11.30;;;6.30;;
37559;SDS011;23398;50.928;7.084;2022-12-18T02:10:10;10.73;;;6.07;;
37559;SDS011;23398;50.928;7.084;2022-12-18T02:12:52;11.27;;;6.73;;
37559;SDS011;23398;50.928;7.084;2022-12-18T02:15:51;12.23;;;5.83;;
37559;SDS011;23398;50.928;7.084;2022-12-18T02:18:32;8.77;;;5.47;;
37559;SDS011;23398;50.928;7.084;2022-12-18T02:26:57;11.67;;;6.33;;
37559;SDS011;23398;50.928;7.084;2022-12-18T02:29:26;9.83;;;5.77;;
37559;SDS011;23398;50.928;7.084;2022-12-18T02:31:58;11.77;;;5.93;;
37559;SDS011;23398;50.928;7.084;2022-12-18T02:34:26;9.23;;;5.70;;
37559;SDS011;23398;50.928;7.084;2022-12-18T02:36:54;9.60;;;5.80;;
37559;SDS011;23398;50.928;7.084;2022-12-18T02:39:21;8.73;;;5.53;;
37559;SDS011;23398;50.928;7.084;2022-12-18T02:41:50;9.37;;;5.77;;
37559;SDS011;23398;50.928;7.084;2022-12-18T02:44:16;9.60;;;5.60;;
37559;SDS011;23398;50.928;7.084;2022-12-18T02:46:45;11.27;;;5.83;;
37559;SDS011;23398;50.928;7.084;2022-12-18T02:49:26;11.10;;;6.07;;
37559;SDS011;23398;50.928;7.084;2022-12-18T02:52:27;10.73;;;6.07;;
37559;SDS011;23398;50.928;7.084;2022-12-18T02:55:12;9.63;;;5.40;;
37559;SDS011;23398;50.928;7.084;2022-12-18T02:57:57;10.33;;;5.50;;
37559;SDS011;23398;50.928;7.084;2022-12-18T03:00:34;8.73;;;5.43;;
37559;SDS011;23398;50.928;7.084;2022-12-18T03:03:24;10.03;;;5.63;;
37559;SDS011;23398;50.928;7.084;2022-12-18T03:06:28;9.30;;;5.80;;
37559;SDS011;23398;50.928;7.084;2022-12-18T03:08:54;9.30;;;5.47;;
37559;SDS011;23398;50.928;7.084;2022-12-18T03:11:24;9.13;;;5.40;;
37559;SDS011;23398;50.928;7.084;2022-12-18T03:14:11;9.60;;;5.43;;
37559;SDS011;23398;50.928;7.084;2022-12-18T03:16:40;11.17;;;5.80;;
37559;SDS011;23398;50.928;7.084;2022-12-18T03:19:08;9.60;;;5.60;;
37559;SDS011;23398;50.928;7.084;2022-12-18T03:21:45;9.63;;;5.60;;
37559;SDS011;23398;50.928;7.084;2022-12-18T03:24:14;10.00;;;5.40;;
37559;SDS011;23398;50.928;7.084;2022-12-18T03:26:42;9.13;;;5.13;;
37559;SDS011;23398;50.928;7.084;2022-12-18T03:29:18;9.97;;;5.30;;
37559;SDS011;23398;50.928;7.084;2022-12-18T03:31:53;9.20;;;5.70;;
37559;SDS011;23398;50.928;7.084;2022-12-18T03:34:23;8.17;;;5.07;;
37559;SDS011;23398;50.928;7.084;2022-12-18T03:36:58;9.40;;;4.80;;
37559;SDS011;23398;50.928;7.084;2022-12-18T03:39:24;8.80;;;5.23;;
37559;SDS011;23398;50.928;7.084;2022-12-18T03:41:55;10.57;;;5.83;;
37559;SDS011;23398;50.928;7.084;2022-12-18T03:45:08;9.10;;;5.60;;
37559;SDS011;23398;50.928;7.084;2022-12-18T03:47:57;9.80;;;4.97;;
37559;SDS011;23398;50.928;7.084;2022-12-18T03:55:54;8.97;;;4.80;;
37559;SDS011;23398;50.928;7.084;2022-12-18T03:58:23;8.43;;;5.10;;
37559;SDS011;23398;50.928;7.084;2022-12-18T04:00:50;9.77;;;5.40;;
37559;SDS011;23398;50.928;7.084;2022-12-18T04:03:18;9.83;;;5.27;;
37559;SDS011;23398;50.928;7.084;2022-12-18T04:05:46;8.77;;;5.60;;
37559;SDS011;23398;50.928;7.084;2022-12-18T04:08:15;9.67;;;4.83;;
37559;SDS011;23398;50.928;7.084;2022-12-18T04:10:41;11.63;;;5.47;;
37559;SDS011;23398;50.928;7.084;2022-12-18T04:13:07;9.30;;;4.83;;
37559;SDS011;23398;50.928;7.084;2022-12-18T04:15:34;7.43;;;4.73;;
37559;SDS011;23398;50.928;7.084;2022-12-18T04:18:01;7.80;;;5.30;;
37559;SDS011;23398;50.928;7.084;2022-12-18T04:20:27;10.47;;;5.00;;
37559;SDS011;23398;50.928;7.084;2022-12-18T04:22:52;8.67;;;5.50;;
37559;SDS011;23398;50.928;7.084;2022-12-18T04:25:18;8.20;;;5.57;;
37559;SDS011;23398;50.928;7.084;2022-12-18T04:27:43;8.97;;;4.97;;
37559;SDS011;23398;50.928;7.084;2022-12-18T04:30:09;8.50;;;4.80;;
37559;SDS011;23398;50.928;7.084;2022-12-18T04:32:35;8.53;;;4.97;;
37559;SDS011;23398;50.928;7.084;2022-12-18T04:35:01;9.60;;;4.73;;
37559;SDS011;23398;50.928;7.084;2022-12-18T04:37:29;8.73;;;5.00;;
37559;SDS011;23398;50.928;7.084;2022-12-18T04:39:55;8.13;;;5.07;;
37559;SDS011;23398;50.928;7.084;2022-12-18T04:42:20;8.33;;;4.83;;
37559;SDS011;23398;50.928;7.084;2022-12-18T04:44:46;9.37;;;4.47;;
37559;SDS011;23398;50.928;7.084;2022-12-18T04:47:11;7.57;;;4.87;;
37559;SDS011;23398;50.928;7.084;2022-12-18T04:49:37;9.57;;;5.03;;
37559;SDS011;23398;50.928;7.084;2022-12-18T04:52:02;7.93;;;4.97;;
37559;SDS011;23398;50.928;7.084;2022-12-18T04:54:28;11.03;;;6.17;;
37559;SDS011;23398;50.928;7.084;2022-12-18T04:56:54;7.80;;;4.93;;
37559;SDS011;23398;50.928;7.084;2022-12-18T04:59:19;9.07;;;5.53;;
37559;SDS011;23398;50.928;7.084;2022-12-18T05:01:45;8.23;;;4.73;;
37559;SDS011;23398;50.928;7.084;2022-12-18T05:04:10;8.23;;;4.70;;
37559;SDS011;23398;50.928;7.084;2022-12-18T05:06:36;9.17;;;5.20;;
37559;SDS011;23398;50.928;7.084;2022-12-18T05:09:01;8.00;;;4.90;;
37559;SDS011;23398;50.928;7.084;2022-12-18T05:11:27;9.07;;;5.00;;
37559;SDS011;23398;50.928;7.084;2022-12-18T05:13:53;9.27;;;4.93;;
37559;SDS011;23398;50.928;7.084;2022-12-18T05:16:18;9.37;;;5.50;;
37559;SDS011;23398;50.928;7.084;2022-12-18T05:18:44;9.50;;;5.43;;
37559;SDS011;23398;50.928;7.084;2022-12-18T05:21:09;8.50;;;5.17;;
37559;SDS011;23398;50.928;7.084;2022-12-18T05:23:35;8.60;;;5.53;;
37559;SDS011;23398;50.928;7.084;2022-12-18T05:26:02;8.80;;;5.10;;
37559;SDS011;23398;50.928;7.084;2022-12-18T05:28:30;8.20;;;4.67;;
37559;SDS011;23398;50.928;7.084;2022-12-18T05:30:58;9.10;;;5.23;;
37559;SDS011;23398;50.928;7.084;2022-12-18T05:33:25;12.03;;;5.90;;
37559;SDS011;23398;50.928;7.084;2022-12-18T05:35:56;11.03;;;6.03;;
37559;SDS011;23398;50.928;7.084;2022-12-18T05:38:24;7.93;;;5.13;;
37559;SDS011;23398;50.928;7.084;2022-12-18T05:40:51;10.13;;;5.60;;
37559;SDS011;23398;50.928;7.084;2022-12-18T05:43:17;9.50;;;5.53;;
37559;SDS011;23398;50.928;7.084;2022-12-18T05:45:44;9.97;;;5.60;;
37559;SDS011;23398;50.928;7.084;2022-12-18T05:48:10;9.17;;;5.47;;
37559;SDS011;23398;50.928;7.084;2022-12-18T05:50:37;9.03;;;5.57;;
37559;SDS011;23398;50.928;7.084;2022-12-18T05:53:04;8.80;;;5.23;;
37559;SDS011;23398;50.928;7.084;2022-12-18T05:55:37;8.13;;;5.73;;
37559;SDS011;23398;50.928;7.084;2022-12-18T05:58:04;9.10;;;5.37;;
37559;SDS011;23398;50.928;7.084;2022-12-18T06:00:32;10.23;;;6.03;;
37559;SDS011;23398;50.928;7.084;2022-12-18T06:02:59;10.20;;;6.07;;
37559;SDS011;23398;50.928;7.084;2022-12-18T06:05:25;10.27;;;6.07;;
37559;SDS011;23398;50.928;7.084;2022-12-18T06:07:51;7.70;;;5.30;;
37559;SDS011;23398;50.928;7.084;2022-12-18T06:10:16;9.60;;;5.30;;
37559;SDS011;23398;50.928;7.084;2022-12-18T06:12:42;10.70;;;5.40;;
37559;SDS011;23398;50.928;7.084;2022-12-18T06:15:07;9.23;;;5.27;;
37559;SDS011;23398;50.928;7.084;2022-12-18T06:17:33;9.20;;;5.13;;
37559;SDS011;23398;50.928;7.084;2022-12-18T06:19:59;10.30;;;5.40;;
37559;SDS011;23398;50.928;7.084;2022-12-18T06:22:26;10.60;;;5.73;;
37559;SDS011;23398;50.928;7.084;2022-12-18T06:24:52;9.20;;;5.43;;
37559;SDS011;23398;50.928;7.084;2022-12-18T06:27:18;9.37;;;5.70;;
37559;SDS011;23398;50.928;7.084;2022-12-18T06:29:43;8.37;;;5.10;;
37559;SDS011;23398;50.928;7.084;2022-12-18T06:32:09;9.10;;;5.60;;
37559;SDS011;23398;50.928;7.084;2022-12-18T06:34:36;9.87;;;5.70;;
37559;SDS011;23398;50.928;7.084;2022-12-18T06:37:02;13.73;;;6.20;;
37559;SDS011;23398;50.928;7.084;2022-12-18T06:39:28;9.90;;;5.90;;
37559;SDS011;23398;50.928;7.084;2022-12-18T06:41:54;11.10;;;6.47;;
37559;SDS011;23398;50.928;7.084;2022-12-18T06:44:19;10.33;;;5.70;;
37559;SDS011;23398;50.928;7.084;2022-12-18T06:46:45;11.43;;;5.80;;
37559;SDS011;23398;50.928;7.084;2022-12-18T06:49:10;10.50;;;5.33;;
37559;SDS011;23398;50.928;7.084;2022-12-18T06:51:36;10.83;;;5.80;;
37559;SDS011;23398;50.928;7.084;2022-12-18T06:54:02;9.57;;;5.37;;
37559;SDS011;23398;50.928;7.084;2022-12-18T06:56:28;9.53;;;5.50;;
37559;SDS011;23398;50.928;7.084;2022-12-18T06:58:54;11.27;;;5.77;;
37559;SDS011;23398;50.928;7.084;2022-12-18T07:01:20;9.07;;;5.23;;
37559;SDS011;23398;50.928;7.084;2022-12-18T07:03:46;10.90;;;5.63;;
37559;SDS011;23398;50.928;7.084;2022-12-18T07:06:16;9.43;;;5.70;;
37559;SDS011;23398;50.928;7.084;2022-12-18T07:08:44;9.63;;;5.57;;
37559;SDS011;23398;50.928;7.084;2022-12-18T07:11:10;10.10;;;6.37;;
37559;SDS011;23398;50.928;7.084;2022-12-18T07:13:36;12.63;;;6.13;;
37559;SDS011;23398;50.928;7.084;2022-12-18T07:16:08;12.23;;;6.53;;
37559;SDS011;23398;50.928;7.084;2022-12-18T07:18:35;9.43;;;5.93;;
37559;SDS011;23398;50.928;7.084;2022-12-18T07:21:09;12.23;;;6.20;;
37559;SDS011;23398;50.928;7.084;2022-12-18T07:23:37;9.17;;;5.47;;
37559;SDS011;23398;50.928;7.084;2022-12-18T07:28:29;9.83;;;5.60;;
37559;SDS011;23398;50.928;7.084;2022-12-18T07:30:55;10.27;;;6.13;;
37559;SDS011;23398;50.928;7.084;2022-12-18T07:33:21;11.30;;;6.20;;
37559;SDS011;23398;50.928;7.084;2022-12-18T07:35:46;10.60;;;6.27;;
37559;SDS011;23398;50.928;7.084;2022-12-18T07:38:12;13.57;;;6.77;;
37559;SDS011;23398;50.928;7.084;2022-12-18T07:40:38;13.13;;;6.87;;
37559;SDS011;23398;50.928;7.084;2022-12-18T07:43:03;14.00;;;7.37;;
37559;SDS011;23398;50.928;7.084;2022-12-18T07:45:29;10.27;;;6.13;;
37559;SDS011;23398;50.928;7.084;2022-12-18T07:47:54;9.37;;;6.03;;
37559;SDS011;23398;50.928;7.084;2022-12-18T07:50:20;12.23;;;6.60;;
37559;SDS011;23398;50.928;7.084;2022-12-18T07:52:45;11.60;;;6.60;;
37559;SDS011;23398;50.928;7.084;2022-12-18T07:55:11;12.17;;;6.20;;
37559;SDS011;23398;50.928;7.084;2022-12-18T07:57:37;11.70;;;7.20;;
37559;SDS011;23398;50.928;7.084;2022-12-18T08:00:03;14.20;;;6.10;;
37559;SDS011;23398;50.928;7.084;2022-12-18T08:02:30;11.90;;;6.20;;
37559;SDS011;23398;50.928;7.084;2022-12-18T08:04:56;9.80;;;6.03;;
37559;SDS011;23398;50.928;7.084;2022-12-18T08:07:22;10.83;;;6.23;;
37559;SDS011;23398;50.928;7.084;2022-12-18T08:09:47;12.17;;;6.43;;
37559;SDS011;23398;50.928;7.084;2022-12-18T08:12:13;12.37;;;6.80;;
37559;SDS011;23398;50.928;7.084;2022-12-18T08:14:38;10.80;;;6.50;;
37559;SDS011;23398;50.928;7.084;2022-12-18T08:17:04;10.97;;;6.03;;
37559;SDS011;23398;50.928;7.084;2022-12-18T08:19:29;13.10;;;7.10;;
37559;SDS011;23398;50.928;7.084;2022-12-18T08:21:55;13.07;;;7.17;;
37559;SDS011;23398;50.928;7.084;2022-12-18T08:24:21;10.97;;;6.33;;
37559;SDS011;23398;50.928;7.084;2022-12-18T08:26:47;10.47;;;6.63;;
37559;SDS011;23398;50.928;7.084;2022-12-18T08:29:12;11.10;;;6.30;;
37559;SDS011;23398;50.928;7.084;2022-12-18T08:31:38;10.27;;;5.90;;
37559;SDS011;23398;50.928;7.084;2022-12-18T08:34:03;10.70;;;6.57;;
37559;SDS011;23398;50.928;7.084;2022-12-18T08:36:29;14.23;;;6.77;;
37559;SDS011;23398;50.928;7.084;2022-12-18T08:38:55;12.00;;;7.17;;
37559;SDS011;23398;50.928;7.084;2022-12-18T08:41:21;14.60;;;7.00;;
37559;SDS011;23398;50.928;7.084;2022-12-18T08:43:47;14.83;;;7.53;;
37559;SDS011;23398;50.928;7.084;2022-12-18T08:46:36;12.37;;;6.77;;
37559;SDS011;23398;50.928;7.084;2022-12-18T08:49:06;12.30;;;7.30;;
37559;SDS011;23398;50.928;7.084;2022-12-18T08:51:32;11.33;;;7.03;;
37559;SDS011;23398;50.928;7.084;2022-12-18T08:53:58;13.87;;;6.80;;
37559;SDS011;23398;50.928;7.084;2022-12-18T08:56:24;11.83;;;6.90;;
37559;SDS011;23398;50.928;7.084;2022-12-18T08:58:53;12.77;;;7.00;;
37559;SDS011;23398;50.928;7.084;2022-12-18T09:01:20;11.60;;;6.57;;
37559;SDS011;23398;50.928;7.084;2022-12-18T09:03:46;9.53;;;6.70;;
37559;SDS011;23398;50.928;7.084;2022-12-18T09:06:13;10.00;;;6.70;;
37559;SDS011;23398;50.928;7.084;2022-12-18T09:08:41;10.47;;;6.83;;
37559;SDS011;23398;50.928;7.084;2022-12-18T09:11:20;8.47;;;6.10;;
37559;SDS011;23398;50.928;7.084;2022-12-18T09:13:48;9.82;;;6.43;;
37559;SDS011;23398;50.928;7.084;2022-12-18T09:16:14;10.57;;;6.53;;
37559;SDS011;23398;50.928;7.084;2022-12-18T09:18:40;11.57;;;6.67;;
37559;SDS011;23398;50.928;7.084;2022-12-18T09:21:10;10.20;;;6.37;;
37559;SDS011;23398;50.928;7.084;2022-12-18T09:23:37;8.05;;;6.22;;
37559;SDS011;23398;50.928;7.084;2022-12-18T09:26:02;9.25;;;6.22;;
37559;SDS011;23398;50.928;7.084;2022-12-18T09:28:28;9.93;;;6.60;;
37559;SDS011;23398;50.928;7.084;2022-12-18T09:30:54;8.50;;;5.80;;
37559;SDS011;23398;50.928;7.084;2022-12-18T09:33:19;9.68;;;6.55;;
37559;SDS011;23398;50.928;7.084;2022-12-18T09:35:45;8.93;;;6.40;;
37559;SDS011;23398;50.928;7.084;2022-12-18T09:38:12;7.68;;;5.78;;
37559;SDS011;23398;50.928;7.084;2022-12-18T09:40:41;9.38;;;6.30;;
37559;SDS011;23398;50.928;7.084;2022-12-18T09:43:13;9.45;;;6.30;;
37559;SDS011;23398;50.928;7.084;2022-12-18T09:45:50;8.88;;;6.38;;
37559;SDS011;23398;50.928;7.084;2022-12-18T09:48:27;9.65;;;6.40;;
37559;SDS011;23398;50.928;7.084;2022-12-18T09:50:57;9.27;;;6.35;;
37559;SDS011;23398;50.928;7.084;2022-12-18T09:53:34;9.82;;;6.78;;
37559;SDS011;23398;50.928;7.084;2022-12-18T09:56:02;12.70;;;6.93;;
37559;SDS011;23398;50.928;7.084;2022-12-18T09:58:49;10.65;;;7.30;;
37559;SDS011;23398;50.928;7.084;2022-12-18T10:01:21;9.43;;;6.80;;
37559;SDS011;23398;50.928;7.084;2022-12-18T10:03:48;12.65;;;6.97;;
37559;SDS011;23398;50.928;7.084;2022-12-18T10:06:15;11.43;;;7.20;;
37559;SDS011;23398;50.928;7.084;2022-12-18T10:09:02;11.53;;;6.40;;
37559;SDS011;23398;50.928;7.084;2022-12-18T10:28:07;10.40;;;6.77;;
37559;SDS011;23398;50.928;7.084;2022-12-18T10:30:37;9.00;;;6.17;;
37559;SDS011;23398;50.928;7.084;2022-12-18T10:33:04;11.73;;;6.57;;
37559;SDS011;23398;50.928;7.084;2022-12-18T10:35:30;10.33;;;6.50;;
37559;SDS011;23398;50.928;7.084;2022-12-18T10:38:03;10.53;;;6.40;;
37559;SDS011;23398;50.928;7.084;2022-12-18T10:40:53;11.20;;;7.43;;
37559;SDS011;23398;50.928;7.084;2022-12-18T10:43:25;11.10;;;7.23;;
37559;SDS011;23398;50.928;7.084;2022-12-18T10:51:20;12.15;;;8.43;;
37559;SDS011;23398;50.928;7.084;2022-12-18T10:53:50;12.20;;;7.40;;
37559;SDS011;23398;50.928;7.084;2022-12-18T10:56:19;11.30;;;6.93;;
37559;SDS011;23398;50.928;7.084;2022-12-18T10:58:46;12.93;;;8.00;;
37559;SDS011;23398;50.928;7.084;2022-12-18T11:01:21;11.57;;;7.07;;
37559;SDS011;23398;50.928;7.084;2022-12-18T11:06:17;9.90;;;6.57;;
37559;SDS011;23398;50.928;7.084;2022-12-18T11:08:57;12.57;;;7.47;;
37559;SDS011;23398;50.928;7.084;2022-12-18T11:11:23;12.07;;;6.93;;
37559;SDS011;23398;50.928;7.084;2022-12-18T11:14:01;12.33;;;7.20;;
37559;SDS011;23398;50.928;7.084;2022-12-18T11:16:30;9.93;;;6.67;;
37559;SDS011;23398;50.928;7.084;2022-12-18T11:19:09;11.87;;;7.57;;
37559;SDS011;23398;50.928;7.084;2022-12-18T11:21:44;12.33;;;7.40;;
37559;SDS011;23398;50.928;7.084;2022-12-18T11:24:29;11.33;;;7.43;;
37559;SDS011;23398;50.928;7.084;2022-12-18T11:27:00;13.03;;;8.03;;
37559;SDS011;23398;50.928;7.084;2022-12-18T11:29:31;12.07;;;7.33;;
37559;SDS011;23398;50.928;7.084;2022-12-18T11:32:22;9.87;;;7.03;;
37559;SDS011;23398;50.928;7.084;2022-12-18T11:35:03;10.80;;;7.30;;
37559;SDS011;23398;50.928;7.084;2022-12-18T11:37:46;12.47;;;7.90;;
37559;SDS011;23398;50.928;7.084;2022-12-18T11:40:24;12.97;;;7.60;;
37559;SDS011;23398;50.928;7.084;2022-12-18T11:43:11;12.50;;;7.87;;
37559;SDS011;23398;50.928;7.084;2022-12-18T11:45:49;13.20;;;8.23;;
37559;SDS011;23398;50.928;7.084;2022-12-18T11:48:38;12.93;;;8.23;;
37559;SDS011;23398;50.928;7.084;2022-12-18T11:51:15;11.80;;;7.90;;
37559;SDS011;23398;50.928;7.084;2022-12-18T11:53:51;12.03;;;7.93;;
37559;SDS011;23398;50.928;7.084;2022-12-18T11:56:26;12.77;;;7.97;;
37559;SDS011;23398;50.928;7.084;2022-12-18T12:18:28;11.67;;;7.73;;
37559;SDS011;23398;50.928;7.084;2022-12-18T12:26:45;12.50;;;8.60;;
37559;SDS011;23398;50.928;7.084;2022-12-18T12:34:47;15.03;;;9.57;;
37559;SDS011;23398;50.928;7.084;2022-12-18T12:40:27;15.07;;;9.00;;
37559;SDS011;23398;50.928;7.084;2022-12-18T12:42:59;14.57;;;9.00;;
37559;SDS011;23398;50.928;7.084;2022-12-18T12:45:41;12.43;;;8.63;;
37559;SDS011;23398;50.928;7.084;2022-12-18T12:51:20;16.33;;;9.80;;
37559;SDS011;23398;50.928;7.084;2022-12-18T12:53:58;15.27;;;8.97;;
37559;SDS011;23398;50.928;7.084;2022-12-18T12:57:00;14.30;;;9.20;;
37559;SDS011;23398;50.928;7.084;2022-12-18T12:59:37;15.40;;;9.60;;
37559;SDS011;23398;50.928;7.084;2022-12-18T13:02:20;14.27;;;8.77;;
37559;SDS011;23398;50.928;7.084;2022-12-18T13:05:10;15.20;;;9.43;;
37559;SDS011;23398;50.928;7.084;2022-12-18T13:15:42;13.73;;;9.40;;
37559;SDS011;23398;50.928;7.084;2022-12-18T13:18:13;16.13;;;9.77;;
37559;SDS011;23398;50.928;7.084;2022-12-18T13:20:48;15.80;;;9.70;;
37559;SDS011;23398;50.928;7.084;2022-12-18T13:23:27;14.70;;;9.27;;
37559;SDS011;23398;50.928;7.084;2022-12-18T13:25:55;16.20;;;10.10;;
37559;SDS011;23398;50.928;7.084;2022-12-18T13:28:49;15.43;;;9.60;;
37559;SDS011;23398;50.928;7.084;2022-12-18T13:34:22;16.67;;;10.30;;
37559;SDS011;23398;50.928;7.084;2022-12-18T13:36:49;16.67;;;11.10;;
37559;SDS011;23398;50.928;7.084;2022-12-18T13:41:46;16.07;;;10.50;;
37559;SDS011;23398;50.928;7.084;2022-12-18T13:44:24;16.83;;;10.97;;
37559;SDS011;23398;50.928;7.084;2022-12-18T13:46:51;16.73;;;10.70;;
37559;SDS011;23398;50.928;7.084;2022-12-18T13:55:02;20.75;;;13.90;;
37559;SDS011;23398;50.928;7.084;2022-12-18T13:57:35;18.70;;;11.47;;
37559;SDS011;23398;50.928;7.084;2022-12-18T14:02:56;15.33;;;10.40;;
37559;SDS011;23398;50.928;7.084;2022-12-18T14:08:00;16.27;;;10.57;;
37559;SDS011;23398;50.928;7.084;2022-12-18T14:10:44;19.57;;;11.53;;
37559;SDS011;23398;50.928;7.084;2022-12-18T14:13:15;17.07;;;10.60;;
37559;SDS011;23398;50.928;7.084;2022-12-18T14:15:48;19.53;;;11.23;;
37559;SDS011;23398;50.928;7.084;2022-12-18T14:18:19;19.03;;;11.20;;
37559;SDS011;23398;50.928;7.084;2022-12-18T14:20:49;20.20;;;13.73;;
37559;SDS011;23398;50.928;7.084;2022-12-18T14:26:01;23.60;;;16.77;;
37559;SDS011;23398;50.928;7.084;2022-12-18T14:28:28;18.90;;;12.37;;
37559;SDS011;23398;50.928;7.084;2022-12-18T14:30:54;16.93;;;11.53;;
37559;SDS011;23398;50.928;7.084;2022-12-18T14:33:24;18.87;;;10.90;;
37559;SDS011;23398;50.928;7.084;2022-12-18T14:36:04;16.33;;;10.47;;
37559;SDS011;23398;50.928;7.084;2022-12-18T14:38:31;16.47;;;10.27;;
37559;SDS011;23398;50.928;7.084;2022-12-18T14:41:05;19.63;;;11.50;;
37559;SDS011;23398;50.928;7.084;2022-12-18T14:43:35;19.77;;;11.37;;
37559;SDS011;23398;50.928;7.084;2022-12-18T14:46:03;18.87;;;11.53;;
37559;SDS011;23398;50.928;7.084;2022-12-18T14:51:12;18.07;;;11.23;;
37559;SDS011;23398;50.928;7.084;2022-12-18T14:53:40;17.43;;;10.93;;
37559;SDS011;23398;50.928;7.084;2022-12-18T14:56:15;16.60;;;10.83;;
37559;SDS011;23398;50.928;7.084;2022-12-18T14:58:47;22.83;;;14.17;;
37559;SDS011;23398;50.928;7.084;2022-12-18T15:01:18;22.70;;;13.50;;
37559;SDS011;23398;50.928;7.084;2022-12-18T15:03:59;19.17;;;11.70;;
37559;SDS011;23398;50.928;7.084;2022-12-18T15:06:27;20.60;;;12.10;;
37559;SDS011;23398;50.928;7.084;2022-12-18T15:08:56;19.43;;;11.83;;
37559;SDS011;23398;50.928;7.084;2022-12-18T15:11:32;20.37;;;12.50;;
37559;SDS011;23398;50.928;7.084;2022-12-18T15:13:58;25.52;;;17.50;;
37559;SDS011;23398;50.928;7.084;2022-12-18T15:16:24;19.87;;;13.57;;
37559;SDS011;23398;50.928;7.084;2022-12-18T15:18:50;20.70;;;12.97;;
37559;SDS011;23398;50.928;7.084;2022-12-18T15:21:17;21.63;;;13.07;;
37559;SDS011;23398;50.928;7.084;2022-12-18T15:26:10;20.00;;;12.17;;
37559;SDS011;23398;50.928;7.084;2022-12-18T15:28:38;19.67;;;11.93;;
37559;SDS011;23398;50.928;7.084;2022-12-18T15:36:14;21.47;;;13.10;;
37559;SDS011;23398;50.928;7.084;2022-12-18T15:38:40;20.17;;;12.00;;
37559;SDS011;23398;50.928;7.084;2022-12-18T15:41:11;18.70;;;12.17;;
37559;SDS011;23398;50.928;7.084;2022-12-18T15:43:40;18.57;;;12.20;;
37559;SDS011;23398;50.928;7.084;2022-12-18T15:46:08;19.73;;;12.30;;
37559;SDS011;23398;50.928;7.084;2022-12-18T15:48:41;21.00;;;12.83;;
37559;SDS011;23398;50.928;7.084;2022-12-18T15:51:13;22.20;;;13.63;;
37559;SDS011;23398;50.928;7.084;2022-12-18T15:53:39;19.37;;;12.83;;
37559;SDS011;23398;50.928;7.084;2022-12-18T15:56:04;22.40;;;13.43;;
37559;SDS011;23398;50.928;7.084;2022-12-18T15:58:52;21.53;;;13.37;;
37559;SDS011;23398;50.928;7.084;2022-12-18T16:01:18;21.23;;;13.43;;
37559;SDS011;23398;50.928;7.084;2022-12-18T16:03:45;21.27;;;12.73;;
37559;SDS011;23398;50.928;7.084;2022-12-18T16:06:11;20.20;;;12.27;;
37559;SDS011;23398;50.928;7.084;2022-12-18T16:08:36;21.87;;;13.13;;
37559;SDS011;23398;50.928;7.084;2022-12-18T16:11:02;22.70;;;13.37;;
37559;SDS011;23398;50.928;7.084;2022-12-18T16:13:27;21.00;;;12.40;;
37559;SDS011;23398;50.928;7.084;2022-12-18T16:15:53;23.20;;;13.93;;
37559;SDS011;23398;50.928;7.084;2022-12-18T16:18:18;20.93;;;13.40;;
37559;SDS011;23398;50.928;7.084;2022-12-18T16:20:44;25.20;;;14.63;;
37559;SDS011;23398;50.928;7.084;2022-12-18T16:23:10;23.33;;;14.17;;
37559;SDS011;23398;50.928;7.084;2022-12-18T16:25:35;28.70;;;16.00;;
37559;SDS011;23398;50.928;7.084;2022-12-18T16:28:01;25.63;;;15.20;;
37559;SDS011;23398;50.928;7.084;2022-12-18T16:30:28;23.43;;;14.60;;
37559;SDS011;23398;50.928;7.084;2022-12-18T16:32:55;23.60;;;13.77;;
37559;SDS011;23398;50.928;7.084;2022-12-18T16:35:21;22.07;;;13.87;;
37559;SDS011;23398;50.928;7.084;2022-12-18T16:37:47;24.03;;;14.47;;
37559;SDS011;23398;50.928;7.084;2022-12-18T16:40:14;25.70;;;15.17;;
37559;SDS011;23398;50.928;7.084;2022-12-18T16:42:41;27.03;;;15.10;;
37559;SDS011;23398;50.928;7.084;2022-12-18T16:45:09;32.83;;;17.17;;
37559;SDS011;23398;50.928;7.084;2022-12-18T16:47:39;26.83;;;16.47;;
37559;SDS011;23398;50.928;7.084;2022-12-18T16:50:05;28.50;;;16.57;;
37559;SDS011;23398;50.928;7.084;2022-12-18T16:52:32;26.47;;;16.00;;
37559;SDS011;23398;50.928;7.084;2022-12-18T16:54:58;29.33;;;15.50;;